createdAt,value
2023-02-17T00:01:46.023Z,96732.63
2023-02-17T00:03:51.100Z,96725.63
2023-02-17T00:05:53.961Z,96728.53
2023-02-17T00:07:56.754Z,96723.22
2023-02-17T00:09:59.667Z,96719.94
2023-02-17T00:12:02.469Z,96705.59
2023-02-17T00:14:05.663Z,96720.97
2023-02-17T00:16:09.580Z,96727.19
2023-02-17T00:18:12.318Z,96686.31
2023-02-17T00:20:16.467Z,96719.75
2023-02-17T00:22:19.210Z,96719.16
2023-02-17T00:24:22.469Z,96718.34
2023-02-17T00:26:25.185Z,96715.44
2023-02-17T00:28:27.911Z,96717.75
2023-02-17T00:30:30.766Z,96722.44
2023-02-17T00:32:33.524Z,96729.88
2023-02-17T00:34:36.281Z,96720.63
2023-02-17T00:36:40.861Z,96722.47
2023-02-17T00:38:45.836Z,96724.34
2023-02-17T00:40:48.608Z,96664.25
2023-02-17T00:42:51.405Z,96699.47
2023-02-17T00:44:54.110Z,96712.84
2023-02-17T00:46:56.839Z,96707.94
2023-02-17T00:48:59.595Z,96718.03
2023-02-17T00:51:02.311Z,96688.31
2023-02-17T00:53:06.372Z,96707.38
2023-02-17T00:55:09.395Z,96718.31
2023-02-17T00:57:12.201Z,96697.19
2023-02-17T00:59:14.981Z,96717.31
2023-02-17T01:01:17.733Z,96702.53
2023-02-17T01:03:20.612Z,96715.91
2023-02-17T01:05:23.288Z,96713.25
2023-02-17T01:07:26.059Z,96670.22
2023-02-17T01:09:30.187Z,96712.03
2023-02-17T01:11:34.725Z,96716.94
2023-02-17T01:13:37.433Z,96691.09
2023-02-17T01:15:41.102Z,96687.16
2023-02-17T01:17:43.942Z,96713.81
2023-02-17T01:19:46.652Z,96718.31
2023-02-17T01:21:49.841Z,96609.56
2023-02-17T01:23:54.281Z,96701.19
2023-02-17T01:25:58.344Z,96707.75
2023-02-17T01:28:01.048Z,96704.44
2023-02-17T01:30:04.891Z,96704.81
2023-02-17T01:32:07.632Z,96574.84
2023-02-17T01:34:11.606Z,96702.16
2023-02-17T01:36:16.486Z,96700.28
2023-02-17T01:38:19.176Z,96685.44
2023-02-17T01:40:22.027Z,96691.63
2023-02-17T01:42:26.082Z,96688.28
2023-02-17T01:44:33.117Z,96685.38
2023-02-17T01:46:36.263Z,96681.69
2023-02-17T01:48:44.531Z,96675.94
2023-02-17T01:50:51.838Z,96632.47
2023-02-17T01:52:56.328Z,96600.09
2023-02-17T01:55:04.709Z,96645.00
2023-02-17T01:57:07.580Z,96671.53
2023-02-17T01:59:16.860Z,96607.19
2023-02-17T02:01:19.685Z,96657.91
2023-02-17T02:03:22.590Z,96654.22
2023-02-17T02:05:26.218Z,96593.25
2023-02-17T02:07:34.800Z,96649.16
2023-02-17T02:09:42.798Z,96668.47
2023-02-17T02:11:45.571Z,96609.41
2023-02-17T02:13:48.596Z,96649.38
2023-02-17T02:16:02.525Z,96647.94
2023-02-17T02:18:21.985Z,96633.44
2023-02-17T02:20:58.147Z,96590.97
2023-02-17T02:23:46.824Z,96650.25
2023-02-17T02:26:24.714Z,96651.88
2023-02-17T02:28:45.773Z,96642.88
2023-02-17T02:31:21.204Z,96633.25
2023-02-17T02:33:34.964Z,96612.09
2023-02-17T02:35:48.888Z,96634.19
2023-02-17T02:37:57.266Z,96638.78
2023-02-17T02:40:04.659Z,96596.34
2023-02-17T02:42:14.165Z,96631.69
2023-02-17T02:44:20.699Z,96571.63
2023-02-17T02:46:23.440Z,96633.06
2023-02-17T02:48:26.667Z,96640.88
2023-02-17T02:50:42.494Z,96642.88
2023-02-17T02:52:58.131Z,96651.50
2023-02-17T02:55:08.297Z,96579.56
2023-02-17T02:57:23.478Z,96606.72
2023-02-17T02:59:35.764Z,96574.00
2023-02-17T03:01:46.149Z,96640.72
2023-02-17T03:03:59.426Z,96639.94
2023-02-17T03:06:11.058Z,96594.31
2023-02-17T03:08:18.656Z,96571.88
2023-02-17T03:10:22.326Z,96620.75
2023-02-17T03:12:26.435Z,96630.81
2023-02-17T03:14:36.039Z,96617.38
2023-02-17T03:16:40.749Z,96577.09
2023-02-17T03:18:43.569Z,96624.03
2023-02-17T03:20:51.943Z,96631.03
2023-02-17T03:22:56.186Z,96622.28
2023-02-17T03:25:01.234Z,96623.00
2023-02-17T03:27:04.143Z,96626.09
2023-02-17T03:29:09.047Z,96619.69
2023-02-17T03:31:11.868Z,96611.44
2023-02-17T03:33:14.861Z,96620.13
2023-02-17T03:35:17.662Z,96624.47
2023-02-17T03:37:20.431Z,96632.63
2023-02-17T03:39:24.588Z,96627.25
2023-02-17T03:41:27.497Z,96627.25
2023-02-17T03:43:30.399Z,96627.34
2023-02-17T03:45:33.336Z,96612.00
2023-02-17T03:47:36.113Z,96628.56
2023-02-17T03:49:38.944Z,96546.03
2023-02-17T03:51:41.739Z,96614.84
2023-02-17T03:53:45.584Z,96597.38
2023-02-17T03:55:49.723Z,96605.47
2023-02-17T03:57:52.411Z,96626.53
2023-02-17T03:59:55.149Z,96634.78
2023-02-17T04:01:57.902Z,96633.53
2023-02-17T04:04:00.667Z,96634.56
2023-02-17T04:06:04.057Z,96642.09
2023-02-17T04:08:07.009Z,96641.66
2023-02-17T04:10:10.908Z,96629.59
2023-02-17T04:12:15.004Z,96636.31
2023-02-17T04:14:17.782Z,96632.44
2023-02-17T04:16:20.548Z,96639.59
2023-02-17T04:18:24.122Z,96636.44
2023-02-17T04:20:26.875Z,96646.72
2023-02-17T04:22:29.583Z,96645.53
2023-02-17T04:24:32.343Z,96641.59
2023-02-17T04:26:35.140Z,96650.81
2023-02-17T04:28:41.113Z,96636.00
2023-02-17T04:30:44.854Z,96643.59
2023-02-17T04:32:47.577Z,96641.38
2023-02-17T04:34:50.332Z,96635.25
2023-02-17T04:36:53.145Z,96597.59
2023-02-17T04:38:55.835Z,96647.63
2023-02-17T04:40:59.818Z,96648.38
2023-02-17T04:43:02.549Z,96650.66
2023-02-17T04:45:08.368Z,96636.38
2023-02-17T04:47:11.156Z,96640.09
2023-02-17T04:49:13.887Z,96512.78
2023-02-17T04:51:16.765Z,96593.34
2023-02-17T04:53:19.624Z,96642.47
2023-02-17T04:55:22.456Z,96625.13
2023-02-17T04:57:25.239Z,96642.56
2023-02-17T04:59:28.037Z,96636.31
2023-02-17T05:01:32.163Z,96612.09
2023-02-17T05:03:35.125Z,96629.44
2023-02-17T05:05:37.955Z,96631.09
2023-02-17T05:07:40.679Z,96625.13
2023-02-17T05:09:43.416Z,96618.72
2023-02-17T05:11:46.257Z,96555.91
2023-02-17T05:13:49.093Z,96629.09
2023-02-17T05:15:51.878Z,96626.25
2023-02-17T05:17:55.936Z,96617.53
2023-02-17T05:19:59.014Z,96618.28
2023-02-17T05:22:01.736Z,96598.47
2023-02-17T05:24:04.751Z,96612.19
2023-02-17T05:26:08.237Z,96444.59
2023-02-17T05:28:11.140Z,96602.81
2023-02-17T05:30:14.712Z,96534.78
2023-02-17T05:32:17.460Z,96606.38
2023-02-17T05:34:21.558Z,96608.47
2023-02-17T05:36:24.357Z,96618.28
2023-02-17T05:38:27.121Z,96613.66
2023-02-17T05:40:29.950Z,96599.22
2023-02-17T05:42:32.720Z,96601.16
2023-02-17T05:44:35.452Z,96585.53
2023-02-17T05:46:38.213Z,96606.75
2023-02-17T05:48:40.952Z,96612.47
2023-02-17T05:50:45.100Z,96560.44
2023-02-17T05:52:47.795Z,96610.38
2023-02-17T05:54:50.489Z,96593.19
2023-02-17T05:56:53.166Z,96608.31
2023-02-17T05:58:55.881Z,96613.81
2023-02-17T06:00:58.613Z,96616.41
2023-02-17T06:03:01.401Z,96621.34
2023-02-17T06:05:04.230Z,96611.28
2023-02-17T06:07:08.373Z,96619.91
2023-02-17T06:09:11.123Z,96626.47
2023-02-17T06:11:13.891Z,96630.25
2023-02-17T06:13:16.660Z,96621.41
2023-02-17T06:15:19.532Z,96633.31
2023-02-17T06:17:22.298Z,96628.63
2023-02-17T06:19:25.393Z,96636.00
2023-02-17T06:21:28.112Z,96634.28
2023-02-17T06:23:32.135Z,96649.84
2023-02-17T06:25:34.893Z,96639.81
2023-02-17T06:27:37.585Z,96644.78
2023-02-17T06:29:40.350Z,96637.34
2023-02-17T06:31:43.128Z,96642.34
2023-02-17T06:33:45.950Z,96643.75
2023-02-17T06:35:52.703Z,96666.97
2023-02-17T06:37:55.448Z,96648.81
2023-02-17T06:39:59.519Z,96660.44
2023-02-17T06:42:02.266Z,96676.06
2023-02-17T06:44:05.435Z,96661.75
2023-02-17T06:46:08.489Z,96656.84
2023-02-17T06:48:11.448Z,96659.91
2023-02-17T06:50:14.903Z,96655.44
2023-02-17T06:52:17.620Z,96651.78
2023-02-17T06:54:20.300Z,96662.44
2023-02-17T06:56:24.468Z,96652.09
2023-02-17T06:58:27.575Z,96632.28
2023-02-17T07:00:30.262Z,96660.34
2023-02-17T07:02:33.082Z,96659.38
2023-02-17T07:04:35.845Z,96676.34
2023-02-17T07:06:38.540Z,96662.97
2023-02-17T07:08:41.531Z,96668.31
2023-02-17T07:10:44.232Z,96667.13
2023-02-17T07:12:48.294Z,96674.13
2023-02-17T07:14:50.991Z,96672.56
2023-02-17T07:16:54.369Z,96677.84
2023-02-17T07:18:57.228Z,96682.53
2023-02-17T07:21:00.179Z,96671.22
2023-02-17T07:23:02.908Z,96680.53
2023-02-17T07:25:06.205Z,96675.13
2023-02-17T07:27:10.757Z,96686.91
2023-02-17T07:29:15.050Z,96688.25
2023-02-17T07:31:18.742Z,96684.84
2023-02-17T07:33:21.613Z,96705.91
2023-02-17T07:35:24.355Z,96690.19
2023-02-17T07:37:27.029Z,96702.66
2023-02-17T07:39:29.742Z,96705.16
2023-02-17T07:41:33.616Z,96708.22
2023-02-17T07:43:44.772Z,96672.56
2023-02-17T07:45:49.690Z,96710.75
2023-02-17T07:47:52.393Z,96714.66
2023-02-17T07:49:55.109Z,96710.00
2023-02-17T07:51:58.988Z,96698.59
2023-02-17T07:54:02.273Z,96704.47
2023-02-17T07:56:05.934Z,96703.41
2023-02-17T07:58:08.777Z,96703.41
2023-02-17T08:00:12.328Z,96707.81
2023-02-17T08:02:19.414Z,96710.25
2023-02-17T08:04:22.178Z,96699.59
2023-02-17T08:06:26.557Z,96650.59
2023-02-17T08:08:47.358Z,96731.34
2023-02-17T08:11:08.049Z,96727.59
2023-02-17T08:13:21.355Z,96723.28
2023-02-17T08:15:24.217Z,96737.97
2023-02-17T08:17:28.553Z,96735.38
2023-02-17T08:19:46.501Z,96744.16
2023-02-17T08:21:51.009Z,96689.84
2023-02-17T08:23:53.834Z,96740.25
2023-02-17T08:25:58.549Z,96665.78
2023-02-17T08:28:01.544Z,96715.38
2023-02-17T08:30:04.932Z,96736.50
2023-02-17T08:32:07.823Z,96741.16
2023-02-17T08:34:12.905Z,96741.44
2023-02-17T08:36:15.796Z,96746.72
2023-02-17T08:38:18.500Z,96745.06
2023-02-17T08:40:21.511Z,96757.28
2023-02-17T08:42:24.277Z,96761.16
2023-02-17T08:44:27.782Z,96685.88
2023-02-17T08:46:31.369Z,96758.09
2023-02-17T08:48:35.901Z,96767.47
2023-02-17T08:50:40.858Z,96752.50
2023-02-17T08:52:43.609Z,96749.91
2023-02-17T08:54:46.429Z,96759.09
2023-02-17T08:56:49.213Z,96752.84
2023-02-17T08:58:52.557Z,96750.75
2023-02-17T09:00:55.401Z,96744.31
2023-02-17T09:02:58.141Z,96734.78
2023-02-17T09:05:01.073Z,96749.53
2023-02-17T09:07:05.317Z,96694.56
2023-02-17T09:09:10.190Z,96733.31
2023-02-17T09:11:15.454Z,96763.25
2023-02-17T09:13:19.160Z,96744.78
2023-02-17T09:15:21.909Z,96756.91
2023-02-17T09:17:25.178Z,96765.81
2023-02-17T09:19:28.245Z,96749.91
2023-02-17T09:21:31.007Z,96753.72
2023-02-17T09:23:35.175Z,96752.75
2023-02-17T09:25:38.036Z,96755.91
2023-02-17T09:27:40.826Z,96742.69
2023-02-17T09:29:43.622Z,96736.81
2023-02-17T09:31:46.565Z,96754.22
2023-02-17T09:33:49.955Z,96734.84
2023-02-17T09:35:53.873Z,96768.19
2023-02-17T09:37:56.694Z,96727.03
2023-02-17T09:40:00.844Z,96734.50
2023-02-17T09:42:04.171Z,96741.84
2023-02-17T09:44:08.540Z,96746.84
2023-02-17T09:46:16.783Z,96735.44
2023-02-17T09:48:22.717Z,96725.84
2023-02-17T09:50:32.396Z,96726.09
2023-02-17T09:52:40.827Z,96696.72
2023-02-17T09:54:52.824Z,96730.75
2023-02-17T09:56:59.164Z,96747.94
2023-02-17T09:59:07.168Z,96748.72
2023-02-17T10:01:12.853Z,96752.50
2023-02-17T10:03:20.096Z,96749.81
2023-02-17T10:05:27.725Z,96728.97
2023-02-17T10:07:34.705Z,96731.34
2023-02-17T10:09:45.536Z,96741.53
2023-02-17T10:11:54.505Z,96724.44
2023-02-17T10:14:02.664Z,96740.34
2023-02-17T10:16:11.124Z,96725.47
2023-02-17T10:18:18.424Z,96727.38
2023-02-17T10:20:24.754Z,96743.88
2023-02-17T10:22:27.970Z,96721.66
2023-02-17T10:24:30.826Z,96778.38
2023-02-17T10:26:59.363Z,96714.75
2023-02-17T10:29:07.663Z,96720.25
2023-02-17T10:31:14.375Z,96742.19
2023-02-17T10:33:24.733Z,96714.06
2023-02-17T10:35:40.533Z,96703.28
2023-02-17T10:37:48.187Z,96706.84
2023-02-17T10:39:52.840Z,96709.72
2023-02-17T10:41:57.225Z,96706.09
2023-02-17T10:44:02.107Z,96720.41
2023-02-17T10:46:08.779Z,96733.00
2023-02-17T10:48:17.150Z,96753.44
2023-02-17T10:50:23.478Z,96745.97
2023-02-17T10:52:37.567Z,96740.75
2023-02-17T10:54:45.268Z,96746.16
2023-02-17T10:56:53.126Z,96747.97
2023-02-17T10:59:02.868Z,96688.97
2023-02-17T11:01:08.595Z,96766.59
2023-02-17T11:03:20.472Z,96748.63
2023-02-17T11:05:25.975Z,96757.69
2023-02-17T11:07:36.357Z,96751.13
2023-02-17T11:09:46.051Z,96738.19
2023-02-17T11:11:58.391Z,96752.44
2023-02-17T11:14:10.602Z,96710.31
2023-02-17T11:16:27.448Z,96742.81
2023-02-17T11:18:34.127Z,96749.41
2023-02-17T11:20:38.370Z,96750.94
2023-02-17T11:22:45.166Z,96750.38
2023-02-17T11:24:58.817Z,96746.19
2023-02-17T11:27:03.718Z,96741.75
2023-02-17T11:29:11.106Z,96758.22
2023-02-17T11:31:25.449Z,96746.00
2023-02-17T11:33:32.356Z,96758.44
2023-02-17T11:35:48.349Z,96750.66
2023-02-17T11:37:51.351Z,96750.81
2023-02-17T11:39:55.693Z,96749.75
2023-02-17T11:41:58.561Z,96756.91
2023-02-17T11:44:01.381Z,96724.00
2023-02-17T11:46:16.315Z,96737.56
2023-02-17T11:48:47.217Z,96733.19
2023-02-17T11:50:55.540Z,96737.81
2023-02-17T11:53:09.886Z,96741.81
2023-02-17T11:55:20.016Z,96737.19
2023-02-17T11:57:38.035Z,96743.25
2023-02-17T12:00:00.865Z,96741.31
2023-02-17T12:02:16.719Z,96762.59
2023-02-17T12:04:26.744Z,96731.75
2023-02-17T12:06:39.786Z,96729.19
2023-02-17T12:09:10.891Z,96718.09
2023-02-17T12:11:20.903Z,96561.63
2023-02-17T12:13:39.000Z,96769.75
2023-02-17T12:15:56.296Z,96749.06
2023-02-17T12:18:10.639Z,96733.19
2023-02-17T12:20:32.593Z,96738.97
2023-02-17T12:22:45.969Z,96717.78
2023-02-17T12:25:04.032Z,96724.97
2023-02-17T12:27:19.932Z,96734.97
2023-02-17T12:29:35.864Z,96723.00
2023-02-17T12:32:01.075Z,96726.47
2023-02-17T12:34:15.321Z,96712.72
2023-02-17T12:36:21.326Z,96709.56
2023-02-17T12:38:27.237Z,96702.44
2023-02-17T12:40:38.702Z,96703.66
2023-02-17T12:42:44.635Z,96709.97
2023-02-17T12:44:51.234Z,96659.69
2023-02-17T12:46:57.578Z,96718.19
2023-02-17T12:49:07.251Z,96709.06
2023-02-17T12:51:16.417Z,96705.13
2023-02-17T12:53:26.634Z,96686.34
2023-02-17T12:55:37.173Z,96706.75
2023-02-17T12:57:45.780Z,96694.66
2023-02-17T12:59:50.491Z,96706.59
2023-02-17T13:01:57.368Z,96698.59
2023-02-17T13:04:00.780Z,96696.22
2023-02-17T13:06:09.812Z,96690.06
2023-02-17T13:08:18.224Z,96698.75
2023-02-17T13:10:34.301Z,96690.97
2023-02-17T13:12:42.825Z,96626.69
2023-02-17T13:14:47.625Z,96694.75
2023-02-17T13:16:50.562Z,96689.56
2023-02-17T13:18:53.546Z,96695.97
2023-02-17T13:20:59.753Z,96704.41
2023-02-17T13:23:11.849Z,96721.66
2023-02-17T13:25:28.366Z,96729.09
2023-02-17T13:27:38.749Z,96705.53
2023-02-17T13:29:41.705Z,96709.72
2023-02-17T13:31:48.624Z,96683.97
2023-02-17T13:33:53.101Z,96637.13
2023-02-17T13:35:56.196Z,96666.78
2023-02-17T13:37:58.882Z,96708.78
2023-02-17T13:40:03.504Z,96723.47
2023-02-17T13:42:22.410Z,96691.88
2023-02-17T13:44:30.720Z,96728.25
2023-02-17T13:46:38.103Z,96728.97
2023-02-17T13:48:40.854Z,96638.38
2023-02-17T13:50:48.364Z,96703.16
2023-02-17T13:52:51.067Z,96712.31
2023-02-17T13:54:55.078Z,96708.81
2023-02-17T13:56:57.821Z,96696.66
2023-02-17T13:59:08.771Z,96716.41
2023-02-17T14:01:18.394Z,96698.84
2023-02-17T14:03:23.790Z,96721.59
2023-02-17T14:05:37.126Z,96712.09
2023-02-17T14:07:40.233Z,96705.59
2023-02-17T14:09:43.401Z,96702.03
2023-02-17T14:11:46.291Z,96687.94
2023-02-17T14:13:51.062Z,96704.00
2023-02-17T14:15:56.152Z,96715.56
2023-02-17T14:18:00.279Z,96661.34
2023-02-17T14:20:03.315Z,96709.53
2023-02-17T14:22:07.083Z,96709.56
2023-02-17T14:24:26.065Z,96713.06
2023-02-17T14:26:38.908Z,96708.00
2023-02-17T14:28:41.749Z,96706.94
2023-02-17T14:30:44.653Z,96709.06
2023-02-17T14:32:47.936Z,96735.84
2023-02-17T14:34:52.017Z,96696.81
2023-02-17T14:36:54.964Z,96716.91
2023-02-17T14:38:59.468Z,96706.25
2023-02-17T14:41:02.340Z,96438.25
2023-02-17T14:43:05.086Z,96713.28
2023-02-17T14:45:08.653Z,96717.97
2023-02-17T14:47:11.352Z,96718.78
2023-02-17T14:49:14.133Z,96718.72
2023-02-17T14:51:20.966Z,96711.50
2023-02-17T14:53:26.912Z,96715.34
2023-02-17T14:55:36.247Z,96705.75
2023-02-17T14:57:38.976Z,96707.50
2023-02-17T14:59:42.054Z,96712.78
2023-02-17T15:01:44.990Z,96703.16
2023-02-17T15:03:47.786Z,96701.34
2023-02-17T15:05:50.789Z,96718.13
2023-02-17T15:07:55.128Z,96709.97
2023-02-17T15:09:57.933Z,96706.13
2023-02-17T15:12:00.740Z,96702.19
2023-02-17T15:14:04.197Z,96701.22
2023-02-17T15:16:08.150Z,96704.91
2023-02-17T15:18:11.257Z,96700.66
2023-02-17T15:20:16.099Z,96717.47
2023-02-17T15:22:18.877Z,96716.66
2023-02-17T15:24:29.903Z,96705.97
2023-02-17T15:26:34.017Z,96699.91
2023-02-17T15:28:36.782Z,96691.00
2023-02-17T15:30:39.651Z,96706.53
2023-02-17T15:32:43.102Z,96712.97
2023-02-17T15:34:46.242Z,96716.06
2023-02-17T15:36:49.085Z,96708.81
2023-02-17T15:38:52.101Z,96700.72
2023-02-17T15:40:58.557Z,96707.59
2023-02-17T15:43:03.320Z,96543.53
2023-02-17T15:45:06.497Z,96688.28
2023-02-17T15:47:14.945Z,96697.34
2023-02-17T15:49:18.090Z,96698.25
2023-02-17T15:51:21.000Z,96687.97
2023-02-17T15:53:23.787Z,96689.94
2023-02-17T15:55:28.276Z,96689.09
2023-02-17T15:57:32.491Z,96686.66
2023-02-17T15:59:36.516Z,96689.44
2023-02-17T16:01:39.560Z,96655.69
2023-02-17T16:03:42.381Z,96697.19
2023-02-17T16:05:45.643Z,96697.91
2023-02-17T16:07:48.713Z,96681.91
2023-02-17T16:09:51.494Z,96653.16
2023-02-17T16:11:55.940Z,96699.72
2023-02-17T16:14:01.572Z,96694.09
2023-02-17T16:16:04.836Z,96696.72
2023-02-17T16:18:09.494Z,96677.03
2023-02-17T16:20:17.236Z,96696.47
2023-02-17T16:22:20.003Z,96682.19
2023-02-17T16:24:22.760Z,96600.59
2023-02-17T16:26:28.287Z,96694.06
2023-02-17T16:28:33.204Z,96695.13
2023-02-17T16:30:37.343Z,96693.03
2023-02-17T16:32:40.267Z,96695.19
2023-02-17T16:34:43.050Z,96690.81
2023-02-17T16:36:46.023Z,96689.75
2023-02-17T16:38:50.872Z,96642.34
2023-02-17T16:40:54.807Z,96688.03
2023-02-17T16:42:58.015Z,96685.25
2023-02-17T16:45:00.946Z,96688.59
2023-02-17T16:47:07.177Z,96683.31
2023-02-17T16:49:19.308Z,96684.56
2023-02-17T16:51:22.213Z,96686.22
2023-02-17T16:53:25.055Z,96682.34
2023-02-17T16:55:29.942Z,96695.00
2023-02-17T16:57:32.833Z,96686.88
2023-02-17T16:59:35.579Z,96590.91
2023-02-17T17:01:38.315Z,96665.66
2023-02-17T17:03:43.755Z,96695.59
2023-02-17T17:05:46.979Z,96696.66
2023-02-17T17:07:51.217Z,96637.19
2023-02-17T17:10:14.851Z,96706.44
2023-02-17T17:12:16.712Z,96704.88
2023-02-17T17:14:21.514Z,96674.53
2023-02-17T17:16:27.805Z,96717.88
2023-02-17T17:18:30.518Z,96712.38
2023-02-17T17:20:39.288Z,96716.66
2023-02-17T17:22:43.002Z,96716.78
2023-02-17T17:24:45.909Z,96613.75
2023-02-17T17:26:51.562Z,96729.59
2023-02-17T17:28:55.357Z,96710.38
2023-02-17T17:30:58.103Z,96724.78
2023-02-17T17:33:00.837Z,96727.66
2023-02-17T17:35:03.677Z,96736.38
2023-02-17T17:37:07.956Z,96728.91
2023-02-17T17:39:16.789Z,96683.03
2023-02-17T17:41:20.024Z,96735.53
2023-02-17T17:43:23.953Z,96675.34
2023-02-17T17:45:27.159Z,96740.06
2023-02-17T17:47:30.589Z,96736.09
2023-02-17T17:49:33.496Z,96744.88
2023-02-17T17:51:36.368Z,96755.47
2023-02-17T17:53:40.908Z,96659.59
2023-02-17T17:55:43.709Z,96742.03
2023-02-17T17:57:48.075Z,96726.56
2023-02-17T17:59:50.842Z,96697.97
2023-02-17T18:01:53.672Z,96596.31
2023-02-17T18:03:57.295Z,96751.75
2023-02-17T18:06:00.477Z,96685.31
2023-02-17T18:08:03.858Z,96736.13
2023-02-17T18:10:10.539Z,96735.78
2023-02-17T18:12:18.769Z,96738.59
2023-02-17T18:14:21.631Z,96753.09
2023-02-17T18:16:27.461Z,96719.16
2023-02-17T18:18:30.462Z,96762.56
2023-02-17T18:20:33.241Z,96753.16
2023-02-17T18:22:35.987Z,96753.28
2023-02-17T18:24:38.776Z,96749.69
2023-02-17T18:26:42.985Z,96769.31
2023-02-17T18:28:46.195Z,96768.84
2023-02-17T18:30:49.204Z,96747.34
2023-02-17T18:32:52.581Z,96754.91
2023-02-17T18:34:57.001Z,96772.81
2023-02-17T18:37:00.310Z,96758.97
2023-02-17T18:39:03.581Z,96749.19
2023-02-17T18:41:06.759Z,96764.72
2023-02-17T18:43:11.022Z,96778.56
2023-02-17T18:45:15.164Z,96783.47
2023-02-17T18:47:17.906Z,96786.84
2023-02-17T18:49:20.582Z,96795.88
2023-02-17T18:51:24.468Z,96803.00
2023-02-17T18:53:27.355Z,96791.53
2023-02-17T18:55:30.148Z,96807.91
2023-02-17T18:57:33.746Z,96793.19
2023-02-17T18:59:38.183Z,96810.38
2023-02-17T19:01:42.492Z,96812.69
2023-02-17T19:03:45.591Z,96818.22
2023-02-17T19:05:48.570Z,96829.09
2023-02-17T19:07:51.256Z,96819.38
2023-02-17T19:09:54.575Z,96784.19
2023-02-17T19:11:57.306Z,96817.88
2023-02-17T19:14:01.404Z,96842.91
2023-02-17T19:16:11.414Z,96827.69
2023-02-17T19:18:14.326Z,96823.84
2023-02-17T19:20:17.233Z,96820.69
2023-02-17T19:22:20.383Z,96830.41
2023-02-17T19:24:23.436Z,96807.34
2023-02-17T19:26:26.183Z,96819.41
2023-02-17T19:28:28.949Z,96820.56
2023-02-17T19:30:31.924Z,96801.75
2023-02-17T19:32:36.157Z,96825.72
2023-02-17T19:34:39.720Z,96825.72
2023-02-17T19:36:42.478Z,96805.16
2023-02-17T19:38:45.724Z,96837.06
2023-02-17T19:40:48.885Z,96848.91
2023-02-17T19:42:51.630Z,96795.56
2023-02-17T19:44:54.450Z,96799.75
2023-02-17T19:46:57.311Z,96842.34
2023-02-17T19:49:01.339Z,96849.47
2023-02-17T19:51:06.814Z,96847.97
2023-02-17T19:53:09.568Z,96850.19
2023-02-17T19:55:12.326Z,96865.88
2023-02-17T19:57:17.287Z,96839.78
2023-02-17T19:59:20.453Z,96865.41
2023-02-17T20:01:25.026Z,96836.84
2023-02-17T20:03:27.953Z,96871.25
2023-02-17T20:05:32.231Z,96878.28
2023-02-17T20:07:34.988Z,96871.25
2023-02-17T20:09:38.253Z,96868.91
2023-02-17T20:11:41.075Z,96865.41
2023-02-17T20:13:46.564Z,96873.72
2023-02-17T20:15:58.667Z,96873.25
2023-02-17T20:18:01.422Z,96867.84
2023-02-17T20:20:04.453Z,96864.34
2023-02-17T20:22:09.514Z,96869.50
2023-02-17T20:24:14.156Z,96809.09
2023-02-17T20:26:19.910Z,96883.13
2023-02-17T20:28:22.784Z,96856.75
2023-02-17T20:30:25.763Z,96843.44
2023-02-17T20:32:29.175Z,96826.59
2023-02-17T20:34:33.955Z,96884.09
2023-02-17T20:36:36.697Z,96859.19
2023-02-17T20:38:41.719Z,96883.28
2023-02-17T20:40:44.574Z,96891.59
2023-02-17T20:42:47.348Z,96869.38
2023-02-17T20:44:51.045Z,96857.16
2023-02-17T20:46:54.621Z,96889.13
2023-02-17T20:48:57.878Z,96870.50
2023-02-17T20:51:00.867Z,96868.59
2023-02-17T20:53:04.307Z,96881.13
2023-02-17T20:55:08.806Z,96882.63
2023-02-17T20:57:15.076Z,96879.50
2023-02-17T20:59:17.814Z,96847.72
2023-02-17T21:01:20.633Z,96867.78
2023-02-17T21:03:23.346Z,96892.22
2023-02-17T21:05:26.512Z,96892.94
2023-02-17T21:07:29.177Z,96838.69
2023-02-17T21:09:31.888Z,96772.22
2023-02-17T21:11:36.021Z,96915.72
2023-02-17T21:13:38.759Z,96907.88
2023-02-17T21:15:41.556Z,96806.34
2023-02-17T21:17:45.083Z,96928.38
2023-02-17T21:19:48.541Z,96863.00
2023-02-17T21:21:51.353Z,96910.97
2023-02-17T21:23:54.355Z,96906.75
2023-02-17T21:25:57.177Z,96906.13
2023-02-17T21:28:01.308Z,96910.41
2023-02-17T21:30:05.162Z,96821.38
2023-02-17T21:32:08.146Z,96923.66
2023-02-17T21:34:10.979Z,96919.41
2023-02-17T21:36:15.861Z,96919.63
2023-02-17T21:38:20.372Z,96924.25
2023-02-17T21:40:23.199Z,96908.19
2023-02-17T21:42:39.825Z,96912.56
2023-02-17T21:44:55.856Z,96909.03
2023-02-17T21:46:58.613Z,96906.72
2023-02-17T21:49:02.329Z,96835.44
2023-02-17T21:51:06.836Z,96857.44
2023-02-17T21:53:09.566Z,96898.13
2023-02-17T21:55:12.305Z,96912.44
2023-02-17T21:57:15.169Z,96919.19
2023-02-17T21:59:17.914Z,96906.75
2023-02-17T22:01:23.333Z,96910.03
2023-02-17T22:03:26.456Z,96908.59
2023-02-17T22:05:31.608Z,96900.31
2023-02-17T22:07:34.372Z,96900.66
2023-02-17T22:09:37.136Z,96900.47
2023-02-17T22:11:42.268Z,96887.91
2023-02-17T22:13:45.462Z,96897.09
2023-02-17T22:15:57.301Z,96895.47
2023-02-17T22:18:01.647Z,96898.94
2023-02-17T22:20:04.746Z,96901.81
2023-02-17T22:22:07.837Z,96897.63
2023-02-17T22:24:10.899Z,96912.84
2023-02-17T22:26:15.610Z,96876.47
2023-02-17T22:28:18.411Z,96896.75
2023-02-17T22:30:21.329Z,96888.66
2023-02-17T22:32:24.149Z,96888.53
2023-02-17T22:34:28.813Z,96869.47
2023-02-17T22:36:33.185Z,96892.16
2023-02-17T22:38:35.963Z,96885.25
2023-02-17T22:40:40.736Z,96852.34
2023-02-17T22:42:43.476Z,96883.84
2023-02-17T22:44:46.237Z,96878.59
2023-02-17T22:46:49.064Z,96866.66
2023-02-17T22:48:53.557Z,96870.84
2023-02-17T22:50:57.681Z,96884.78
2023-02-17T22:53:01.293Z,96857.28
2023-02-17T22:55:04.045Z,96867.94
2023-02-17T22:57:06.879Z,96874.13
2023-02-17T22:59:09.663Z,96896.72
2023-02-17T23:01:14.221Z,96861.41
2023-02-17T23:03:18.523Z,96874.06
2023-02-17T23:05:21.538Z,96885.97
2023-02-17T23:07:25.577Z,96862.78
2023-02-17T23:09:28.312Z,96865.53
2023-02-17T23:11:53.749Z,96879.97
2023-02-17T23:13:56.595Z,96876.94
2023-02-17T23:15:59.384Z,96862.13
2023-02-17T23:18:02.143Z,96788.03
2023-02-17T23:20:05.269Z,96872.94
2023-02-17T23:22:10.621Z,96875.31
2023-02-17T23:24:15.585Z,96753.19
2023-02-17T23:26:18.310Z,96855.44
2023-02-17T23:28:23.280Z,96858.38
2023-02-17T23:30:26.723Z,96868.06
2023-02-17T23:32:29.536Z,96871.09
2023-02-17T23:34:32.320Z,96874.16
2023-02-17T23:36:35.083Z,96872.50
2023-02-17T23:38:37.750Z,96871.34
2023-02-17T23:40:42.823Z,96874.25
2023-02-17T23:42:45.666Z,96870.72
2023-02-17T23:44:48.368Z,96873.06
2023-02-17T23:46:51.105Z,96871.44
2023-02-17T23:48:53.825Z,96862.66
2023-02-17T23:50:57.295Z,96869.81
2023-02-17T23:53:00.115Z,96854.81
2023-02-17T23:55:05.803Z,96867.56
2023-02-17T23:57:09.867Z,96859.16
2023-02-17T23:59:12.762Z,96861.63
